Time;durP1;ratioP1;P1;durP2;ratioP2;P2;SDS_P1;SDS_P2;PMS_P1;PMS_P2;Temp;Humidity;BMP_temperature;BMP_pressure;BME280_temperature;BME280_humidity;BME280_pressure;Samples;Min_cycle;Max_cycle;Signal;HPM_P1;HPM_P2
2022/09/01 00:00:00;;;;;;;3.30;0.60;;;;;;;13.52;68.38;101589.91;108482;1270;72551;-82
2022/09/01 00:02:29;;;;;;;2.00;0.80;;;;;;;13.46;68.58;101593.12;108608;1270;72806;-82
2022/09/01 00:04:57;;;;;;;3.20;0.90;;;;;;;13.41;69.08;101594.90;108433;1271;60859;-82
2022/09/01 00:07:29;;;;;;;3.00;1.00;;;;;;;13.39;69.09;101593.98;108623;1270;60442;-82
2022/09/01 00:09:57;;;;;;;2.90;1.10;;;;;;;13.35;69.33;101597.82;108470;1271;74935;-82
2022/09/01 00:12:24;;;;;;;2.20;1.10;;;;;;;13.30;69.64;101595.12;108512;1270;71559;-82
2022/09/01 00:14:51;;;;;;;2.60;1.20;;;;;;;13.26;69.56;101594.48;108553;1271;72654;-82
2022/09/01 00:17:19;;;;;;;3.70;1.00;;;;;;;13.23;69.82;101596.75;108481;1270;61042;-82
2022/09/01 00:19:46;;;;;;;2.10;0.90;;;;;;;13.20;69.99;101593.16;108393;1270;60595;-82
2022/09/01 00:22:16;;;;;;;5.70;1.00;;;;;;;13.18;70.33;101598.95;108518;1270;75993;-82
2022/09/01 00:24:43;;;;;;;2.50;0.90;;;;;;;13.16;70.44;101595.39;108489;1270;72482;-82
2022/09/01 00:27:10;;;;;;;2.30;0.90;;;;;;;13.14;70.56;101592.64;108568;1270;73964;-83
2022/09/01 00:29:39;;;;;;;4.20;1.00;;;;;;;13.13;70.76;101589.77;108479;1270;62182;-82
2022/09/01 00:32:10;;;;;;;2.00;0.80;;;;;;;13.11;70.91;101592.74;108521;1270;62415;-82
2022/09/01 00:34:37;;;;;;;4.00;0.80;;;;;;;13.09;70.87;101588.55;108418;1271;77477;-82
2022/09/01 00:37:04;;;;;;;3.50;0.80;;;;;;;13.07;70.90;101588.21;108422;1270;72365;-82
2022/09/01 00:39:31;;;;;;;2.10;0.80;;;;;;;13.05;70.91;101588.83;108381;1271;72965;-82
2022/09/01 00:41:58;;;;;;;2.10;0.90;;;;;;;13.02;71.16;101589.06;108476;1271;62047;-82
2022/09/01 00:44:26;;;;;;;1.80;0.90;;;;;;;12.99;71.17;101588.73;108474;1270;60410;-82
2022/09/01 00:47:00;;;;;;;3.40;1.10;;;;;;;12.97;71.48;101590.90;108448;1270;75009;-82
2022/09/01 00:49:40;;;;;;;2.20;0.90;;;;;;;12.95;71.67;101588.15;108479;1270;70496;-82
2022/09/01 00:52:15;;;;;;;2.80;0.90;;;;;;;12.92;71.95;101586.02;108619;1270;73973;-82
2022/09/01 00:54:49;;;;;;;2.30;0.90;;;;;;;12.88;72.33;101587.62;108537;1270;63585;-82
2022/09/01 00:57:17;;;;;;;3.20;1.00;;;;;;;12.86;72.39;101584.86;108487;1270;59320;-82
2022/09/01 00:59:58;;;;;;;3.20;1.10;;;;;;;12.83;72.77;101586.36;108391;1271;75059;-82
2022/09/01 01:02:25;;;;;;;2.60;0.90;;;;;;;12.79;73.15;101584.33;108514;1271;71476;-82
2022/09/01 01:04:54;;;;;;;3.00;1.10;;;;;;;12.76;73.43;101581.34;108670;1270;73186;-82
2022/09/01 01:07:22;;;;;;;2.70;0.90;;;;;;;12.73;73.60;101578.61;108456;1270;63433;-82
2022/09/01 01:09:49;;;;;;;3.60;0.90;;;;;;;12.72;73.58;101580.87;108509;1271;60382;-82
2022/09/01 01:12:17;;;;;;;4.80;1.00;;;;;;;12.70;74.14;101575.27;108517;1271;75963;-82
2022/09/01 01:14:51;;;;;;;3.40;1.10;;;;;;;12.68;74.19;101576.05;108565;1271;71419;-82
2022/09/01 01:17:20;;;;;;;2.90;1.10;;;;;;;12.65;74.60;101576.79;108621;1270;72683;-82
2022/09/01 01:23:02;;;;;;;2.90;1.00;;;;;;;12.62;74.91;101573.80;108507;1270;61870;-82
2022/09/01 01:25:34;;;;;;;4.30;1.00;;;;;;;12.60;75.18;101574.16;108596;1270;75054;-82
2022/09/01 01:28:20;;;;;;;3.10;1.00;;;;;;;12.59;75.32;101570.23;108633;1270;72456;-82
2022/09/01 01:30:52;;;;;;;3.30;1.10;;;;;;;12.57;75.68;101573.48;108468;1270;73024;-82
2022/09/01 01:33:21;;;;;;;3.40;0.90;;;;;;;12.56;75.61;101571.95;108476;1270;63561;-82
2022/09/01 01:35:50;;;;;;;3.30;1.50;;;;;;;12.55;75.48;101575.21;108427;1271;60605;-82
2022/09/01 01:38:21;;;;;;;2.60;1.10;;;;;;;12.54;75.63;101576.41;108509;1271;75568;-83
2022/09/01 01:40:50;;;;;;;2.60;1.40;;;;;;;12.52;75.78;101576.79;108446;1271;71654;-82
2022/09/01 01:43:20;;;;;;;3.40;1.10;;;;;;;12.52;75.78;101580.24;108473;1270;74318;-82
2022/09/01 01:45:51;;;;;;;3.40;1.20;;;;;;;12.50;75.90;101585.19;108434;1271;62517;-82
2022/09/01 01:48:22;;;;;;;3.30;1.10;;;;;;;12.47;75.95;101582.11;108478;1270;62029;-82
2022/09/01 01:50:51;;;;;;;5.60;1.20;;;;;;;12.48;75.96;101584.23;108567;1270;75235;-82
2022/09/01 01:53:19;;;;;;;4.10;1.10;;;;;;;12.45;75.90;101583.96;108522;1270;71196;-82
2022/09/01 01:55:49;;;;;;;3.60;1.10;;;;;;;12.42;75.94;101581.95;108430;1271;72998;-83
2022/09/01 01:58:18;;;;;;;2.90;1.10;;;;;;;12.40;76.15;101581.54;108622;1270;62627;-83
2022/09/01 02:00:47;;;;;;;5.70;1.30;;;;;;;12.37;76.01;101580.44;108550;1270;60641;-83
2022/09/01 02:03:18;;;;;;;2.50;1.00;;;;;;;12.33;76.16;101585.39;108503;1271;75446;-83
2022/09/01 02:05:48;;;;;;;3.10;1.30;;;;;;;12.31;76.16;101585.15;108448;1271;71508;-83
2022/09/01 02:08:17;;;;;;;4.00;1.00;;;;;;;12.28;76.41;101585.95;108493;1271;73183;-83
2022/09/01 02:10:46;;;;;;;4.80;1.20;;;;;;;12.25;76.57;101586.97;108445;1271;62728;-83
2022/09/01 02:13:15;;;;;;;3.40;1.20;;;;;;;12.21;76.50;101586.69;108339;1270;59355;-83
2022/09/01 02:15:48;;;;;;;2.50;1.20;;;;;;;12.18;76.82;101588.12;108597;1270;76249;-83
2022/09/01 02:18:22;;;;;;;2.30;1.00;;;;;;;12.15;76.98;101586.31;108496;1271;71596;-83
2022/09/01 02:20:51;;;;;;;2.10;0.90;;;;;;;12.12;77.10;101582.69;108415;1271;74737;-83
2022/09/01 02:23:24;;;;;;;3.90;1.20;;;;;;;12.09;77.22;101584.23;108488;1271;63260;-83
2022/09/01 02:25:53;;;;;;;3.40;1.20;;;;;;;12.07;77.55;101580.98;108584;1271;60261;-83
2022/09/01 02:28:41;;;;;;;2.60;1.20;;;;;;;12.04;77.85;101581.05;108501;1270;76250;-83
2022/09/01 02:31:10;;;;;;;3.20;1.20;;;;;;;12.02;77.99;101577.52;108517;1271;72716;-83
2022/09/01 02:33:39;;;;;;;3.20;1.20;;;;;;;12.01;78.09;101578.05;108451;1271;72047;-83
2022/09/01 02:36:14;;;;;;;3.20;1.10;;;;;;;11.99;78.27;101579.61;108455;1271;63315;-83
2022/09/01 02:38:43;;;;;;;4.00;1.20;;;;;;;11.98;78.42;101584.36;108442;1271;60790;-83
2022/09/01 02:41:13;;;;;;;3.20;1.10;;;;;;;11.98;78.52;101587.41;108593;1270;75565;-83
2022/09/01 02:43:45;;;;;;;4.40;1.20;;;;;;;11.96;78.71;101581.74;108461;1271;70616;-83
2022/09/01 02:46:13;;;;;;;3.20;1.30;;;;;;;11.95;78.79;101578.46;108506;1271;74033;-83
2022/09/01 02:48:44;;;;;;;3.90;1.40;;;;;;;11.94;78.96;101579.66;108473;1271;61918;-83
2022/09/01 02:51:14;;;;;;;4.20;1.20;;;;;;;11.92;79.06;101577.57;108524;1271;60618;-83
2022/09/01 02:53:42;;;;;;;2.60;1.20;;;;;;;11.91;79.42;101571.50;108586;1270;74959;-82
2022/09/01 02:56:13;;;;;;;4.50;1.20;;;;;;;11.88;79.64;101565.86;108624;1270;71078;-83
2022/09/01 02:58:45;;;;;;;2.30;1.20;;;;;;;11.87;79.63;101567.11;108660;1270;74060;-83
2022/09/01 03:01:23;;;;;;;4.50;1.30;;;;;;;11.85;79.77;101562.28;108637;1270;61992;-83
2022/09/01 03:03:54;;;;;;;2.10;1.20;;;;;;;11.83;79.85;101560.71;108614;1270;60424;-83
2022/09/01 03:06:22;;;;;;;4.00;1.40;;;;;;;11.83;79.95;101559.89;108480;1271;74842;-83
2022/09/01 03:08:53;;;;;;;1.90;1.20;;;;;;;11.81;80.08;101561.23;108597;1271;72533;-83
2022/09/01 03:11:23;;;;;;;3.60;1.20;;;;;;;11.79;80.27;101555.33;108434;1271;71744;-83
2022/09/01 03:13:51;;;;;;;2.80;1.30;;;;;;;11.77;80.36;101553.92;108580;1271;61645;-83
2022/09/01 03:16:18;;;;;;;3.40;1.10;;;;;;;11.74;80.64;101560.43;108582;1271;60346;-83
2022/09/01 03:18:46;;;;;;;2.90;1.10;;;;;;;11.71;80.82;101557.55;108428;1271;73919;-83
2022/09/01 03:21:14;;;;;;;4.30;1.30;;;;;;;11.69;80.98;101557.63;108514;1270;71465;-83
2022/09/01 03:23:44;;;;;;;3.00;1.50;;;;;;;11.68;81.12;101560.50;108526;1271;72954;-84
2022/09/01 03:26:12;;;;;;;2.30;1.20;;;;;;;11.68;81.16;101559.84;108440;1271;62267;-83
2022/09/01 03:28:42;;;;;;;3.00;1.40;;;;;;;11.67;81.31;101560.66;108437;1271;61644;-84
2022/09/01 03:31:11;;;;;;;2.50;1.50;;;;;;;11.66;81.27;101562.70;108478;1271;74812;-83
2022/09/01 03:33:38;;;;;;;2.40;1.50;;;;;;;11.65;81.33;101560.89;108566;1270;72251;-83
2022/09/01 03:36:17;;;;;;;3.50;1.50;;;;;;;11.62;81.60;101557.49;108456;1271;72038;-83
2022/09/01 03:38:48;;;;;;;3.60;1.60;;;;;;;11.60;81.71;101562.96;108479;1270;62276;-83
2022/09/01 03:41:17;;;;;;;3.60;1.70;;;;;;;11.59;81.74;101563.99;108560;1271;60488;-83
2022/09/01 03:43:46;;;;;;;3.60;1.70;;;;;;;11.57;81.85;101564.68;108473;1271;75014;-83
2022/09/01 03:46:21;;;;;;;3.00;1.40;;;;;;;11.55;81.94;101561.69;108476;1271;71894;-83
2022/09/01 03:48:53;;;;;;;4.10;1.60;;;;;;;11.54;82.02;101563.08;108480;1271;71656;-83
2022/09/01 03:51:22;;;;;;;3.80;1.70;;;;;;;11.53;82.09;101564.80;108420;1271;62039;-83
2022/09/01 03:53:55;;;;;;;3.30;1.70;;;;;;;11.51;82.18;101562.54;108488;1271;59465;-84
2022/09/01 03:56:25;;;;;;;4.50;1.70;;;;;;;11.50;82.55;101568.10;108532;1270;74766;-83
2022/09/01 04:01:18;;;;;;;3.30;1.70;;;;;;;11.43;82.57;101568.75;108519;1259;59202;-83
2022/09/01 04:03:48;;;;;;;5.10;1.90;;;;;;;11.41;82.87;101568.77;108501;1271;63168;-84
2022/09/01 04:06:18;;;;;;;3.10;1.50;;;;;;;11.40;82.85;101566.07;108612;1270;62126;-84
2022/09/01 04:08:45;;;;;;;3.00;1.60;;;;;;;11.37;83.03;101562.98;108432;1271;75038;-84
2022/09/01 04:11:17;;;;;;;3.10;1.80;;;;;;;11.36;83.07;101560.31;108492;1270;71355;-84
2022/09/01 04:13:46;;;;;;;2.60;1.60;;;;;;;11.34;83.19;101563.69;108568;1270;73029;-84
2022/09/01 04:19:18;;;;;;;3.20;1.50;;;;;;;11.30;83.18;101557.15;108575;1269;60839;-83
2022/09/01 04:21:49;;;;;;;3.00;1.50;;;;;;;11.28;83.19;101556.55;108513;1270;75964;-83
2022/09/01 04:24:17;;;;;;;3.80;1.70;;;;;;;11.27;83.39;101556.88;108587;1270;72707;-83
2022/09/01 04:26:47;;;;;;;3.30;1.80;;;;;;;11.26;83.49;101557.83;108601;1270;72971;-84
2022/09/01 04:29:17;;;;;;;4.10;1.70;;;;;;;11.25;83.67;101563.41;108426;1270;61984;-83
2022/09/01 04:31:47;;;;;;;3.80;1.60;;;;;;;11.24;83.81;101560.28;108538;1271;62091;-87
2022/09/01 04:34:15;;;;;;;2.10;1.60;;;;;;;11.26;84.05;101553.91;108553;1270;75549;-87
2022/09/01 04:36:43;;;;;;;4.20;2.00;;;;;;;11.29;84.14;101557.64;108552;1270;71108;-87
2022/09/01 04:39:12;;;;;;;3.80;1.60;;;;;;;11.32;84.14;101556.30;108525;1271;72951;-87
2022/09/01 04:41:41;;;;;;;3.40;1.50;;;;;;;11.35;84.16;101554.25;108622;1270;62282;-87
2022/09/01 04:44:09;;;;;;;2.80;1.60;;;;;;;11.37;84.23;101557.15;108626;1270;61508;-87
2022/09/01 04:46:41;;;;;;;3.40;1.70;;;;;;;11.39;84.15;101556.05;108660;1270;76643;-87
2022/09/01 04:49:09;;;;;;;5.70;1.90;;;;;;;11.42;84.38;101556.14;108605;1270;71503;-87
2022/09/01 04:51:45;;;;;;;3.50;1.60;;;;;;;11.44;84.38;101556.81;108549;1271;72348;-87
2022/09/01 04:54:20;;;;;;;3.50;1.70;;;;;;;11.47;84.59;101560.39;108553;1270;62561;-87
2022/09/01 04:56:49;;;;;;;3.70;1.60;;;;;;;11.50;84.57;101567.95;108620;1270;60760;-87
2022/09/01 04:59:19;;;;;;;3.20;2.00;;;;;;;11.52;84.61;101560.61;108605;1270;75013;-87
2022/09/01 05:01:49;;;;;;;3.70;1.70;;;;;;;11.56;84.59;101562.32;108441;1270;70988;-87
2022/09/01 05:04:20;;;;;;;3.50;1.70;;;;;;;11.60;84.60;101565.29;108469;1270;74217;-87
2022/09/01 05:06:49;;;;;;;3.20;1.70;;;;;;;11.64;84.58;101567.34;108615;1270;62179;-88
2022/09/01 05:09:18;;;;;;;2.60;1.60;;;;;;;11.68;84.52;101567.45;108490;1271;60579;-88
2022/09/01 05:11:45;;;;;;;4.30;1.90;;;;;;;11.72;84.61;101571.48;108512;1271;75815;-88
2022/09/01 05:14:13;;;;;;;3.70;1.70;;;;;;;11.75;84.48;101569.87;108584;1270;71545;-88
2022/09/01 05:16:41;;;;;;;5.40;1.80;;;;;;;11.80;84.46;101572.01;108622;1270;73390;-87
2022/09/01 05:19:13;;;;;;;3.70;2.00;;;;;;;11.84;84.41;101574.64;108511;1270;64661;-88
2022/09/01 05:21:46;;;;;;;5.20;1.60;;;;;;;11.88;84.35;101575.73;108530;1271;60970;-88
2022/09/01 05:24:16;;;;;;;3.70;1.80;;;;;;;11.88;84.37;101574.74;108471;1271;76397;-87
2022/09/01 05:26:46;;;;;;;2.70;1.80;;;;;;;11.93;84.52;101579.23;108551;1270;71773;-88
2022/09/01 05:29:16;;;;;;;4.80;1.60;;;;;;;11.98;84.73;101575.18;108531;1271;73841;-88
2022/09/01 05:31:45;;;;;;;4.40;1.60;;;;;;;12.02;84.51;101577.71;108527;1270;62274;-88
2022/09/01 05:34:25;;;;;;;4.50;2.90;;;;;;;12.09;84.70;101575.41;108511;1270;59102;-88
2022/09/01 05:36:54;;;;;;;2.40;1.60;;;;;;;12.17;84.86;101576.45;108603;1270;75964;-88
2022/09/01 05:39:22;;;;;;;2.80;1.60;;;;;;;12.26;84.94;101578.75;108486;1269;71200;-88
2022/09/01 05:41:49;;;;;;;6.40;2.60;;;;;;;12.33;84.49;101580.10;108334;1271;72914;-88
2022/09/01 05:44:17;;;;;;;5.70;1.90;;;;;;;12.40;84.39;101579.17;108563;1270;62265;-89
2022/09/01 05:46:45;;;;;;;4.70;1.60;;;;;;;12.50;84.18;101582.88;108542;1270;60612;-88
2022/09/01 05:49:12;;;;;;;4.80;2.10;;;;;;;12.60;84.03;101579.83;108608;1270;74744;-88
2022/09/01 05:51:42;;;;;;;4.30;1.70;;;;;;;12.72;83.96;101581.11;108600;1270;71474;-88
2022/09/01 05:54:13;;;;;;;4.20;1.80;;;;;;;12.83;83.46;101585.52;108578;1269;73643;-89
2022/09/01 05:56:42;;;;;;;5.10;1.90;;;;;;;12.95;83.23;101585.61;108568;1270;62077;-88
2022/09/01 05:59:12;;;;;;;4.60;1.90;;;;;;;13.09;83.03;101588.22;108575;1271;61620;-88
2022/09/01 06:01:54;;;;;;;7.10;3.40;;;;;;;13.22;82.81;101590.66;108639;1268;73995;-87
2022/09/01 06:04:26;;;;;;;3.10;1.70;;;;;;;13.33;82.27;101587.73;108443;1271;71734;-88
2022/09/01 06:06:55;;;;;;;3.80;1.80;;;;;;;13.41;82.17;101592.50;108534;1271;72818;-88
2022/09/01 06:09:37;;;;;;;3.60;1.90;;;;;;;13.53;82.39;101585.83;108527;1270;62544;-88
2022/09/01 06:12:05;;;;;;;5.20;1.90;;;;;;;13.69;81.91;101589.02;108544;1271;60434;-88
2022/09/01 06:14:33;;;;;;;3.60;1.60;;;;;;;13.81;81.55;101584.56;108559;1270;74933;-88
2022/09/01 06:17:01;;;;;;;4.80;1.90;;;;;;;13.94;81.22;101586.73;108649;1270;72573;-87
2022/09/01 06:19:28;;;;;;;3.90;1.70;;;;;;;14.04;80.91;101586.29;108601;1270;74193;-88
2022/09/01 06:22:01;;;;;;;4.50;1.80;;;;;;;14.15;80.61;101584.31;108603;1270;61914;-87
2022/09/01 06:24:28;;;;;;;5.30;1.60;;;;;;;14.28;80.55;101583.25;108517;1270;59600;-88
2022/09/01 06:26:56;;;;;;;5.30;1.70;;;;;;;14.42;80.07;101583.16;108523;1270;74722;-88
2022/09/01 06:29:23;;;;;;;5.00;1.50;;;;;;;14.54;79.75;101584.90;108600;1268;70832;-88
2022/09/01 06:31:51;;;;;;;7.50;4.50;;;;;;;14.68;79.77;101587.75;108639;1269;72280;-89
2022/09/01 06:34:19;;;;;;;4.80;2.20;;;;;;;14.82;79.32;101588.10;108562;1270;61872;-88
2022/09/01 06:36:48;;;;;;;3.70;1.70;;;;;;;14.94;78.92;101587.23;108673;1270;60101;-88
2022/09/01 06:39:21;;;;;;;8.60;4.00;;;;;;;15.06;78.53;101589.17;108517;1271;75895;-89
2022/09/01 06:41:51;;;;;;;5.20;1.50;;;;;;;15.20;78.07;101587.32;107586;1270;1385863;-88
2022/09/01 06:44:21;;;;;;;3.90;2.10;;;;;;;15.36;77.71;101591.69;108465;1270;72578;-89
2022/09/01 06:46:51;;;;;;;4.30;2.20;;;;;;;15.50;76.96;101595.27;108563;1271;62416;-86
2022/09/01 06:49:20;;;;;;;21.50;15.70;;;;;;;15.63;76.35;101592.63;108520;1271;60317;-84
2022/09/01 06:51:48;;;;;;;7.50;4.10;;;;;;;15.78;75.33;101592.38;108510;1270;74733;-84
2022/09/01 06:54:18;;;;;;;5.80;3.50;;;;;;;15.91;74.77;101592.88;108518;1271;71585;-84
2022/09/01 06:56:47;;;;;;;5.00;3.00;;;;;;;16.01;73.58;101598.79;108629;1270;72916;-83
2022/09/01 06:59:22;;;;;;;3.40;1.30;;;;;;;16.13;73.42;101601.27;108632;1270;61944;-83
2022/09/01 07:01:51;;;;;;;3.00;1.70;;;;;;;16.24;72.87;101598.91;108555;1270;60557;-84
2022/09/01 07:04:20;;;;;;;2.70;1.70;;;;;;;16.35;72.00;101597.63;108568;1270;75420;-84
2022/09/01 07:06:51;;;;;;;23.10;16.10;;;;;;;16.46;71.78;101599.45;108651;1270;69967;-85
2022/09/01 07:09:28;;;;;;;4.40;2.10;;;;;;;16.62;71.39;101601.38;108645;1270;72913;-84
2022/09/01 07:12:18;;;;;;;5.00;1.40;;;;;;;16.76;70.31;101605.52;108537;1270;65546;-83
2022/09/01 07:14:55;;;;;;;15.80;11.00;;;;;;;16.89;69.32;101605.84;108617;1270;59059;-83
2022/09/01 07:17:51;;;;;;;4.50;2.10;;;;;;;16.99;67.86;101604.56;108494;1270;74612;-83
2022/09/01 07:20:20;;;;;;;4.10;1.90;;;;;;;17.13;67.34;101604.11;108576;1272;71424;-84
2022/09/01 07:22:53;;;;;;;3.80;1.60;;;;;;;17.25;66.34;101609.76;108501;1271;73812;-84
2022/09/01 07:25:40;;;;;;;6.20;3.80;;;;;;;17.38;65.71;101609.64;108483;1270;62657;-84
2022/09/01 07:28:31;;;;;;;9.70;5.70;;;;;;;17.51;64.47;101611.86;108397;1271;63902;-83
2022/09/01 07:31:07;;;;;;;3.60;1.50;;;;;;;17.60;62.44;101613.05;108514;1270;76394;-84
2022/09/01 07:33:57;;;;;;;4.90;1.40;;;;;;;17.66;61.33;101616.55;108543;1271;71635;-85
2022/09/01 07:36:45;;;;;;;4.00;1.90;;;;;;;17.75;61.10;101611.64;108490;1270;74678;-84
2022/09/01 07:39:32;;;;;;;6.10;4.10;;;;;;;17.86;60.61;101609.94;108572;1270;63795;-84
2022/09/01 07:42:17;;;;;;;5.20;2.90;;;;;;;18.00;59.46;101605.27;108605;1270;61075;-84
2022/09/01 07:45:08;;;;;;;3.40;1.70;;;;;;;18.12;58.52;101608.44;108511;1270;73730;-85
2022/09/01 07:47:52;;;;;;;3.50;1.70;;;;;;;18.22;57.26;101606.45;108527;1270;72235;-85
2022/09/01 07:50:23;;;;;;;4.60;1.80;;;;;;;18.33;56.81;101604.80;108577;1271;74629;-83
2022/09/01 07:53:07;;;;;;;1.70;0.80;;;;;;;18.42;54.59;101610.27;108614;1269;60356;-84
2022/09/01 07:55:40;;;;;;;1.00;0.40;;;;;;;18.51;53.89;101609.05;108493;1270;60338;-88
2022/09/01 07:58:10;;;;;;;1.70;0.70;;;;;;;18.56;51.72;101609.80;108486;1273;73852;-88
2022/09/01 08:00:38;;;;;;;2.20;0.80;;;;;;;18.61;49.78;101615.10;108565;1271;72367;-89
2022/09/01 08:03:06;;;;;;;3.30;2.00;;;;;;;18.67;49.07;101616.27;108648;1270;72691;-89
2022/09/01 08:05:33;;;;;;;1.80;0.50;;;;;;;18.74;48.19;101610.26;108532;1270;59619;-89
2022/09/01 08:08:00;;;;;;;1.40;0.30;;;;;;;18.85;48.62;101612.48;108533;1270;60326;-88
2022/09/01 08:10:27;;;;;;;1.10;0.40;;;;;;;18.95;48.37;101609.38;108344;1271;74914;-88
2022/09/01 08:12:56;;;;;;;2.10;0.40;;;;;;;19.05;47.49;101611.52;108483;1270;71510;-87
2022/09/01 08:15:25;;;;;;;2.00;0.50;;;;;;;19.13;47.61;101611.34;108439;1271;73070;-89
2022/09/01 08:18:15;;;;;;;1.60;0.70;;;;;;;19.28;46.63;101605.19;108544;1270;63956;-88
2022/09/01 08:20:44;;;;;;;1.40;0.40;;;;;;;19.43;46.42;101612.73;108541;1270;61907;-88
2022/09/01 08:23:14;;;;;;;1.60;0.50;;;;;;;19.55;45.41;101611.45;108562;1271;74485;-87
2022/09/01 08:25:43;;;;;;;1.10;0.30;;;;;;;19.68;44.73;101616.02;108384;1272;71635;-88
2022/09/01 08:28:16;;;;;;;0.80;0.40;;;;;;;19.78;44.35;101615.70;108579;1271;74012;-89
2022/09/01 08:30:52;;;;;;;3.60;0.70;;;;;;;19.85;43.92;101614.14;108614;1270;61395;-87
2022/09/01 08:33:19;;;;;;;1.40;0.50;;;;;;;20.01;44.20;101606.94;108653;1270;59209;-89
2022/09/01 08:35:47;;;;;;;2.00;0.50;;;;;;;20.19;44.49;101609.68;108618;1270;74970;-86
2022/09/01 08:38:15;;;;;;;5.80;3.90;;;;;;;20.35;42.98;101608.34;108483;1271;72625;-89
2022/09/01 08:40:53;;;;;;;3.00;1.90;;;;;;;20.43;42.18;101606.98;108511;1271;71930;-89
2022/09/01 08:43:49;;;;;;;1.60;0.50;;;;;;;20.53;42.38;101609.14;108608;1270;61113;-89
2022/09/01 08:46:28;;;;;;;1.40;0.50;;;;;;;20.68;42.71;101607.31;108514;1271;59594;-89
2022/09/01 08:49:06;;;;;;;3.60;0.90;;;;;;;20.86;42.66;101608.52;108536;1271;76526;-89
2022/09/01 08:52:09;;;;;;;2.30;0.60;;;;;;;21.05;43.48;101611.13;108622;1269;71370;-87
2022/09/01 08:54:43;;;;;;;1.20;0.50;;;;;;;21.18;42.00;101607.41;108624;1270;72952;-89
2022/09/01 08:57:39;;;;;;;3.80;2.40;;;;;;;21.25;41.91;101606.36;108517;1270;60417;-89
2022/09/01 09:00:12;;;;;;;4.10;1.20;;;;;;;21.33;42.27;101602.73;108614;1270;61322;-89
2022/09/01 09:03:04;;;;;;;3.10;0.40;;;;;;;21.43;41.97;101606.27;108574;1270;75988;-88
2022/09/01 09:06:01;;;;;;;2.40;0.40;;;;;;;21.50;42.08;101601.85;108561;1271;72305;-89
2022/09/01 09:08:48;;;;;;;1.80;0.60;;;;;;;21.54;41.95;101604.45;108628;1270;75609;-90
2022/09/01 09:11:47;;;;;;;2.90;0.70;;;;;;;21.59;42.29;101604.88;108568;1271;61142;-89
2022/09/01 09:14:35;;;;;;;2.80;0.60;;;;;;;21.72;42.85;101601.73;108593;1271;60278;-90
2022/09/01 09:17:04;;;;;;;3.60;2.00;;;;;;;21.85;42.29;101604.77;108623;1270;74935;-89
2022/09/01 09:19:41;;;;;;;1.70;0.50;;;;;;;21.92;42.07;101607.47;108650;1270;72736;-89
2022/09/01 09:22:10;;;;;;;2.30;0.40;;;;;;;21.99;41.86;101605.55;108464;1270;73015;-89
2022/09/01 09:24:59;;;;;;;1.70;0.90;;;;;;;22.10;42.33;101604.81;108455;1270;61729;-88
2022/09/01 09:27:35;;;;;;;6.90;2.30;;;;;;;22.19;41.48;101598.62;108649;1270;60386;-89
2022/09/01 09:30:26;;;;;;;1.70;0.60;;;;;;;22.35;41.29;101597.98;108516;1270;77699;-87
2022/09/01 09:32:59;;;;;;;1.50;0.40;;;;;;;22.48;40.83;101593.33;108610;1270;72831;-89
2022/09/01 09:35:47;;;;;;;2.60;0.50;;;;;;;22.60;40.48;101594.48;108638;1270;74836;-88
2022/09/01 09:38:27;;;;;;;1.40;0.50;;;;;;;22.72;39.84;101589.64;108507;1271;61611;-88
2022/09/01 09:41:08;;;;;;;2.50;0.50;;;;;;;22.83;40.00;101582.05;108518;1271;60529;-89
2022/09/01 09:43:57;;;;;;;2.30;0.30;;;;;;;22.92;38.54;101583.34;108664;1270;76266;-89
2022/09/01 09:46:32;;;;;;;3.10;0.40;;;;;;;22.94;37.96;101578.94;108593;1270;73288;-88
2022/09/01 09:49:10;;;;;;;1.40;0.40;;;;;;;23.02;38.14;101577.91;108651;1269;73241;-88
2022/09/01 09:51:44;;;;;;;1.80;0.40;;;;;;;23.11;38.11;101572.33;108486;1270;60832;-88
2022/09/01 09:54:12;;;;;;;1.40;0.40;;;;;;;23.17;37.22;101572.09;108601;1270;60889;-88
2022/09/01 09:56:43;;;;;;;2.00;0.60;;;;;;;23.24;36.59;101576.63;108546;1270;74952;-88
2022/09/01 09:59:27;;;;;;;2.20;0.50;;;;;;;23.29;36.92;101577.08;108497;1270;72412;-89
2022/09/01 10:02:36;;;;;;;1.40;0.40;;;;;;;23.38;36.84;101572.67;108567;1270;74706;-88
2022/09/01 10:05:28;;;;;;;2.20;0.40;;;;;;;23.45;36.77;101570.92;108637;1270;59702;-88
2022/09/01 10:07:57;;;;;;;1.60;0.40;;;;;;;23.53;36.21;101564.54;108663;1269;62588;-88
2022/09/01 10:10:30;;;;;;;1.10;0.50;;;;;;;23.65;35.91;101567.25;108605;1270;75966;-89
2022/09/01 10:12:58;;;;;;;2.00;0.40;;;;;;;23.77;35.83;101563.27;108648;1270;71480;-88
2022/09/01 10:15:29;;;;;;;1.40;0.40;;;;;;;23.83;35.12;101564.59;108564;1270;72778;-88
2022/09/01 10:18:13;;;;;;;2.10;0.30;;;;;;;23.88;34.10;101562.73;108573;1270;60363;-87
2022/09/01 10:21:07;;;;;;;1.90;0.30;;;;;;;23.95;34.57;101564.33;108439;1272;60558;-88
2022/09/01 10:23:36;;;;;;;1.30;0.30;;;;;;;23.94;33.50;101561.55;108424;1271;75250;-87
2022/09/01 10:26:23;;;;;;;1.90;0.30;;;;;;;23.95;33.91;101557.27;108575;1270;70361;-88
2022/09/01 10:29:06;;;;;;;1.50;0.30;;;;;;;24.01;33.04;101565.33;108681;1270;73633;-88
2022/09/01 10:31:39;;;;;;;1.00;0.30;;;;;;;24.05;33.22;101557.19;108569;1270;60161;-90
2022/09/01 10:34:11;;;;;;;3.00;0.50;;;;;;;24.12;33.36;101553.83;108591;1270;60437;-88
2022/09/01 10:39:03;;;;;;;1.00;0.30;;;;;;;24.16;33.02;101543.92;108650;1257;59520;-88
2022/09/01 10:41:55;;;;;;;1.70;0.50;;;;;;;24.18;33.16;101544.84;108596;1270;72764;-88
2022/09/01 10:44:32;;;;;;;0.70;0.30;;;;;;;24.26;32.75;101542.95;108674;1269;61371;-88
2022/09/01 10:47:36;;;;;;;2.40;0.30;;;;;;;24.31;33.37;101543.84;108469;1269;60651;-87
2022/09/01 10:50:23;;;;;;;0.80;0.30;;;;;;;24.44;32.43;101544.77;108491;1268;78061;-89
2022/09/01 10:52:56;;;;;;;3.60;1.10;;;;;;;24.53;31.92;101540.98;108626;1270;72330;-88
2022/09/01 10:55:25;;;;;;;2.00;0.50;;;;;;;24.65;31.97;101535.34;108543;1270;74209;-89
2022/09/01 10:58:22;;;;;;;0.90;0.30;;;;;;;24.67;31.44;101534.02;108477;1270;60628;-86
2022/09/01 11:01:09;;;;;;;0.90;0.30;;;;;;;24.67;31.22;101528.37;108680;1270;58986;-87
2022/09/01 11:03:56;;;;;;;1.40;0.40;;;;;;;24.69;31.26;101530.52;108677;1269;74512;-88
2022/09/01 11:06:41;;;;;;;3.70;0.50;;;;;;;24.74;31.72;101529.79;108578;1271;71254;-87
2022/09/01 11:09:35;;;;;;;5.50;1.20;;;;;;;24.79;31.28;101527.95;108610;1269;74029;-88
2022/09/01 11:12:31;;;;;;;1.60;0.30;;;;;;;24.89;31.43;101522.83;108658;1270;62102;-88
2022/09/01 11:15:04;;;;;;;1.80;0.30;;;;;;;24.99;31.20;101524.54;108677;1270;60590;-88
2022/09/01 11:17:36;;;;;;;0.60;0.30;;;;;;;25.06;31.44;101519.96;108402;1270;74633;-88
2022/09/01 11:20:24;;;;;;;0.70;0.30;;;;;;;25.14;31.36;101519.19;108547;1270;72431;-87
2022/09/01 11:23:11;;;;;;;2.10;0.40;;;;;;;25.18;31.46;101520.72;108564;1270;73033;-88
2022/09/01 11:26:09;;;;;;;1.80;0.60;;;;;;;25.25;31.31;101520.83;108616;1271;61633;-88
2022/09/01 11:28:52;;;;;;;1.90;0.30;;;;;;;25.38;31.70;101521.35;108434;1270;60613;-88
2022/09/01 11:31:25;;;;;;;0.90;0.30;;;;;;;25.56;31.92;101522.09;108556;1270;75183;-88
2022/09/01 11:33:57;;;;;;;1.50;0.40;;;;;;;25.81;31.32;101518.70;108416;1270;72615;-88
2022/09/01 11:36:35;;;;;;;0.60;0.20;;;;;;;26.07;31.54;101516.36;108523;1270;72490;-88
2022/09/01 11:39:30;;;;;;;0.70;0.30;;;;;;;26.31;30.51;101509.21;108568;1271;61238;-88
2022/09/01 11:42:18;;;;;;;1.50;0.40;;;;;;;26.47;30.64;101511.40;108467;1271;60982;-88
2022/09/01 11:44:51;;;;;;;1.30;0.50;;;;;;;26.66;30.17;101504.68;108597;1271;75415;-90
2022/09/01 11:47:25;;;;;;;1.80;0.30;;;;;;;26.85;29.41;101502.83;108530;1270;73094;-89
2022/09/01 11:50:02;;;;;;;1.40;0.40;;;;;;;27.01;29.48;101507.36;108588;1269;72979;-88
2022/09/01 11:52:33;;;;;;;1.10;0.20;;;;;;;27.31;29.29;101504.13;108474;1270;60830;-88
2022/09/01 11:55:00;;;;;;;0.80;0.30;;;;;;;27.64;29.08;101501.49;108517;1271;60366;-88
2022/09/01 11:57:31;;;;;;;1.00;0.30;;;;;;;27.87;27.72;101501.37;108602;1270;75445;-90